METAR AND TAF INFORMATION
METAR FOR GCTS
ADDS - METARS form results

(0018 UTC 29 January 2023)
Data provider http://aviationweather.gov/metar/data/
 
METAR text: GCTS 290000Z 04011KT 9999 FEW040 16/09 Q1020 NOSIG
Conditions at: GCTS (TENERIFE SUR/REI, ES) observed 0000 UTC 29 January 2023
Temperature: 16.0°C (61°F)
Dewpoint: 9.0°C (48°F) [RH = 63%]
Pressure (altimeter): 30.12 inches Hg (1020.0 mb)
Winds: from the NE (40 degrees) at 13 MPH (11 knots; 5.7 m/s)
Visibility: 6 or more miles (10+ km)
Ceiling: at least 12,000 feet AGL
Clouds: few clouds at 4000 feet AGL
Weather: no significant weather observed at this time

METAR text: GCTS 282330Z 06010KT 9999 FEW040 16/09 Q1020 NOSIG
Conditions at: GCTS (TENERIFE SUR/REI, ES) observed 2330 UTC 28 January 2023
Temperature: 16.0°C (61°F)
Dewpoint: 9.0°C (48°F) [RH = 63%]
Pressure (altimeter): 30.12 inches Hg (1020.0 mb)
Winds: from the ENE (60 degrees) at 12 MPH (10 knots; 5.1 m/s)
Visibility: 6 or more miles (10+ km)
Ceiling: at least 12,000 feet AGL
Clouds: few clouds at 4000 feet AGL
Weather: no significant weather observed at this time

Forecast for: GCTS (TENERIFE SUR/REI, ES)
Text: TAF GCTS 282000Z 2821/2921 03008KT 9999 SCT045 TX20/2914Z TN16/2906Z
Forecast period: 2100 UTC 28 January 2023 to 0900 UTC 29 January 2023
Forecast type: FROM: standard forecast or significant change
Winds: from the NNE (30 degrees) at 9 MPH (8 knots; 4.1 m/s)
Visibility: 6 or more miles (10+ km)
Ceiling: at least 12,000 feet AGL
Clouds: scattered clouds at 4500 feet AGL
Weather: no significant weather forecast for this period
Text: BECMG 2909/2911 09012KT
Forecast period: 0900 to 1900 UTC 29 January 2023
Forecast type: BECOMING: Conditions expected to become as follows by 1100 UTC 29 January 2023
Winds: from the E (90 degrees) at 14 MPH (12 knots; 6.2 m/s)
Visibility: 6 or more miles (10+ km)
Ceiling: at least 12,000 feet AGL
Clouds: scattered clouds at 4500 feet AGL
Weather: no significant weather forecast for this period
Text: BECMG 2919/2921 03006KT
Forecast period: 1900 to 2100 UTC 29 January 2023
Forecast type: BECOMING: Conditions expected to become as follows by 2100 UTC 29 January 2023
Winds: from the NNE (30 degrees) at 7 MPH (6 knots; 3.1 m/s)
Visibility: 6 or more miles (10+ km)
Ceiling: at least 12,000 feet AGL
Clouds: scattered clouds at 4500 feet AGL
Weather: no significant weather forecast for this period

 AIRPORT MAP

 RUNWAY INFORMATION
Runway 08 Runway length 10499 ft Runway width 148 ft
Runway elevation 187 ft Runway displaced threshold 0 ft Runway heading 69
Runway 26 Runway length 10499 ft Runway width 148 ft
Runway elevation 209 ft Runway displaced threshold 0 ft Runway heading 249

 AIRPORT FREQUENCIES
Type APP Name APP Frequency 120.3 MHZ
Type ATIS Name ATIS Frequency 118.675 MHZ
Type GND Name GND Frequency 121.9 MHZ
Type TWR Name TWR Frequency 119 MHZ

 AIRPORT NEAR NAVIGATION AIDS
Type NDB Name Tenerife Sur Frequency 317 KHZ
Type VOR-DME Name Tenerife Sur Frequency 116400 KHZ